sensor_id;sensor_type;location;lat;lon;timestamp;pressure;altitude;pressure_sealevel;temperature;humidity
42633;BME280;28261;53.304;-6.284;2024-03-29T00:01:48;97198.75;;;4.25;100.00
42633;BME280;28261;53.304;-6.284;2024-03-29T00:03:49;97202.13;;;4.17;100.00
42633;BME280;28261;53.304;-6.284;2024-03-29T00:05:52;97196.97;;;4.07;100.00
42633;BME280;28261;53.304;-6.284;2024-03-29T00:07:54;97195.63;;;4.03;100.00
42633;BME280;28261;53.304;-6.284;2024-03-29T00:09:56;97192.75;;;3.97;100.00
42633;BME280;28261;53.304;-6.284;2024-03-29T00:11:57;97200.78;;;3.95;100.00
42633;BME280;28261;53.304;-6.284;2024-03-29T00:13:59;97195.16;;;3.90;100.00
42633;BME280;28261;53.304;-6.284;2024-03-29T00:16:00;97195.44;;;3.87;100.00
42633;BME280;28261;53.304;-6.284;2024-03-29T00:18:03;97195.72;;;3.84;100.00
42633;BME280;28261;53.304;-6.284;2024-03-29T00:20:05;97204.69;;;3.81;100.00
42633;BME280;28261;53.304;-6.284;2024-03-29T00:22:09;97189.28;;;3.78;100.00
42633;BME280;28261;53.304;-6.284;2024-03-29T00:24:10;97209.56;;;3.76;100.00
42633;BME280;28261;53.304;-6.284;2024-03-29T00:26:12;97203.50;;;3.76;100.00
42633;BME280;28261;53.304;-6.284;2024-03-29T00:28:14;97200.88;;;3.76;100.00
42633;BME280;28261;53.304;-6.284;2024-03-29T00:30:16;97201.25;;;3.81;100.00
42633;BME280;28261;53.304;-6.284;2024-03-29T00:32:18;97204.28;;;3.86;100.00
42633;BME280;28261;53.304;-6.284;2024-03-29T00:34:19;97211.16;;;3.87;100.00
42633;BME280;28261;53.304;-6.284;2024-03-29T00:36:21;97211.16;;;3.87;100.00
42633;BME280;28261;53.304;-6.284;2024-03-29T00:38:24;97216.84;;;3.82;100.00
42633;BME280;28261;53.304;-6.284;2024-03-29T00:40:26;97215.94;;;3.73;100.00
42633;BME280;28261;53.304;-6.284;2024-03-29T00:42:27;97217.34;;;3.68;100.00
42633;BME280;28261;53.304;-6.284;2024-03-29T00:44:29;97214.31;;;3.63;100.00
42633;BME280;28261;53.304;-6.284;2024-03-29T00:46:31;97216.41;;;3.59;100.00
42633;BME280;28261;53.304;-6.284;2024-03-29T00:48:32;97215.75;;;3.57;100.00
42633;BME280;28261;53.304;-6.284;2024-03-29T00:50:34;97217.38;;;3.58;100.00
42633;BME280;28261;53.304;-6.284;2024-03-29T00:52:35;97216.41;;;3.59;100.00
42633;BME280;28261;53.304;-6.284;2024-03-29T00:54:38;97215.28;;;3.62;100.00
42633;BME280;28261;53.304;-6.284;2024-03-29T00:56:40;97222.84;;;3.65;100.00
42633;BME280;28261;53.304;-6.284;2024-03-29T00:58:42;97216.66;;;3.66;100.00
42633;BME280;28261;53.304;-6.284;2024-03-29T01:00:43;97217.84;;;3.71;100.00
42633;BME280;28261;53.304;-6.284;2024-03-29T01:02:45;97220.31;;;3.73;100.00
42633;BME280;28261;53.304;-6.284;2024-03-29T01:04:47;97224.75;;;3.72;100.00
42633;BME280;28261;53.304;-6.284;2024-03-29T01:06:48;97222.13;;;3.72;100.00
42633;BME280;28261;53.304;-6.284;2024-03-29T01:08:50;97226.56;;;3.72;100.00
42633;BME280;28261;53.304;-6.284;2024-03-29T01:10:53;97228.63;;;3.68;100.00
42633;BME280;28261;53.304;-6.284;2024-03-29T01:12:54;97228.09;;;3.65;100.00
42633;BME280;28261;53.304;-6.284;2024-03-29T01:14:56;97236.78;;;3.65;100.00
42633;BME280;28261;53.304;-6.284;2024-03-29T01:16:57;97235.53;;;3.69;100.00
42633;BME280;28261;53.304;-6.284;2024-03-29T01:18:59;97239.66;;;3.72;100.00
42633;BME280;28261;53.304;-6.284;2024-03-29T01:21:00;97243.09;;;3.72;100.00
42633;BME280;28261;53.304;-6.284;2024-03-29T01:23:02;97243.09;;;3.72;100.00
42633;BME280;28261;53.304;-6.284;2024-03-29T01:25:04;97236.03;;;3.73;100.00
42633;BME280;28261;53.304;-6.284;2024-03-29T01:27:07;97238.53;;;3.75;100.00
42633;BME280;28261;53.304;-6.284;2024-03-29T01:29:08;97237.19;;;3.70;100.00
42633;BME280;28261;53.304;-6.284;2024-03-29T01:31:10;97233.88;;;3.68;100.00
42633;BME280;28261;53.304;-6.284;2024-03-29T01:33:12;97243.53;;;3.68;100.00
42633;BME280;28261;53.304;-6.284;2024-03-29T01:35:14;97239.09;;;3.68;100.00
42633;BME280;28261;53.304;-6.284;2024-03-29T01:37:15;97238.97;;;3.70;100.00
42633;BME280;28261;53.304;-6.284;2024-03-29T01:39:17;97238.97;;;3.70;100.00
42633;BME280;28261;53.304;-6.284;2024-03-29T01:41:18;97234.41;;;3.72;100.00
42633;BME280;28261;53.304;-6.284;2024-03-29T01:43:22;97231.94;;;3.70;100.00
42633;BME280;28261;53.304;-6.284;2024-03-29T01:45:24;97241.28;;;3.73;100.00
42633;BME280;28261;53.304;-6.284;2024-03-29T01:47:27;97248.72;;;3.78;100.00
42633;BME280;28261;53.304;-6.284;2024-03-29T01:49:30;97244.69;;;3.83;100.00
42633;BME280;28261;53.304;-6.284;2024-03-29T01:51:37;97240.34;;;3.92;100.00
42633;BME280;28261;53.304;-6.284;2024-03-29T01:53:41;97243.75;;;4.02;100.00
42633;BME280;28261;53.304;-6.284;2024-03-29T01:55:42;97241.06;;;4.12;100.00
42633;BME280;28261;53.304;-6.284;2024-03-29T01:57:45;97238.22;;;4.23;100.00
42633;BME280;28261;53.304;-6.284;2024-03-29T01:59:48;97237.63;;;4.30;100.00
42633;BME280;28261;53.304;-6.284;2024-03-29T02:01:51;97238.03;;;4.35;100.00
42633;BME280;28261;53.304;-6.284;2024-03-29T02:03:54;97240.34;;;4.38;100.00
42633;BME280;28261;53.304;-6.284;2024-03-29T02:05:56;97236.59;;;4.40;100.00
42633;BME280;28261;53.304;-6.284;2024-03-29T02:08:01;97220.41;;;4.45;100.00
42633;BME280;28261;53.304;-6.284;2024-03-29T02:10:03;97231.28;;;4.50;100.00
42633;BME280;28261;53.304;-6.284;2024-03-29T02:12:08;97226.41;;;4.55;100.00
42633;BME280;28261;53.304;-6.284;2024-03-29T02:14:10;97233.81;;;4.60;100.00
42633;BME280;28261;53.304;-6.284;2024-03-29T02:16:14;97220.75;;;4.68;100.00
42633;BME280;28261;53.304;-6.284;2024-03-29T02:18:15;97216.69;;;4.74;100.00
42633;BME280;28261;53.304;-6.284;2024-03-29T02:20:18;97229.53;;;4.77;100.00
42633;BME280;28261;53.304;-6.284;2024-03-29T02:22:20;97215.41;;;4.78;100.00
42633;BME280;28261;53.304;-6.284;2024-03-29T02:24:26;97218.88;;;4.79;100.00
42633;BME280;28261;53.304;-6.284;2024-03-29T02:26:28;97219.69;;;4.79;100.00
42633;BME280;28261;53.304;-6.284;2024-03-29T02:28:34;97214.59;;;4.78;100.00
42633;BME280;28261;53.304;-6.284;2024-03-29T02:30:36;97219.31;;;4.74;100.00
42633;BME280;28261;53.304;-6.284;2024-03-29T02:32:38;97220.09;;;4.66;100.00
42633;BME280;28261;53.304;-6.284;2024-03-29T02:34:40;97217.47;;;4.66;100.00
42633;BME280;28261;53.304;-6.284;2024-03-29T02:36:42;97215.66;;;4.67;100.00
42633;BME280;28261;53.304;-6.284;2024-03-29T02:38:46;97224.06;;;4.70;100.00
42633;BME280;28261;53.304;-6.284;2024-03-29T02:40:49;97224.56;;;4.74;100.00
42633;BME280;28261;53.304;-6.284;2024-03-29T02:42:52;97218.19;;;4.77;100.00
42633;BME280;28261;53.304;-6.284;2024-03-29T02:44:54;97223.06;;;4.71;100.00
42633;BME280;28261;53.304;-6.284;2024-03-29T02:46:57;97216.13;;;4.62;100.00
42633;BME280;28261;53.304;-6.284;2024-03-29T02:48:59;97221.66;;;4.59;100.00
42633;BME280;28261;53.304;-6.284;2024-03-29T02:51:01;97217.09;;;4.61;100.00
42633;BME280;28261;53.304;-6.284;2024-03-29T02:53:03;97214.00;;;4.66;100.00
42633;BME280;28261;53.304;-6.284;2024-03-29T02:55:06;97212.22;;;4.66;100.00
42633;BME280;28261;53.304;-6.284;2024-03-29T02:57:10;97208.53;;;4.59;100.00
42633;BME280;28261;53.304;-6.284;2024-03-29T02:59:12;97207.03;;;4.56;100.00
42633;BME280;28261;53.304;-6.284;2024-03-29T03:01:14;97219.34;;;4.56;100.00
42633;BME280;28261;53.304;-6.284;2024-03-29T03:03:17;97214.78;;;4.58;100.00
42633;BME280;28261;53.304;-6.284;2024-03-29T03:05:19;97209.22;;;4.61;100.00
42633;BME280;28261;53.304;-6.284;2024-03-29T03:07:22;97214.47;;;4.61;100.00
42633;BME280;28261;53.304;-6.284;2024-03-29T03:09:42;97208.38;;;4.61;100.00
42633;BME280;28261;53.304;-6.284;2024-03-29T03:12:02;97211.69;;;4.63;100.00
42633;BME280;28261;53.304;-6.284;2024-03-29T03:14:06;97215.59;;;4.58;100.00
42633;BME280;28261;53.304;-6.284;2024-03-29T03:16:09;97208.53;;;4.59;100.00
42633;BME280;28261;53.304;-6.284;2024-03-29T03:18:10;97194.28;;;4.62;100.00
42633;BME280;28261;53.304;-6.284;2024-03-29T03:20:13;97197.75;;;4.62;100.00
42633;BME280;28261;53.304;-6.284;2024-03-29T03:22:16;97200.06;;;4.65;100.00
42633;BME280;28261;53.304;-6.284;2024-03-29T03:24:18;97199.09;;;4.66;100.00
42633;BME280;28261;53.304;-6.284;2024-03-29T03:26:20;97195.84;;;4.72;100.00
42633;BME280;28261;53.304;-6.284;2024-03-29T03:28:23;97205.75;;;4.79;100.00
42633;BME280;28261;53.304;-6.284;2024-03-29T03:30:26;97213.97;;;4.84;100.00
42633;BME280;28261;53.304;-6.284;2024-03-29T03:32:29;97216.97;;;4.89;100.00
42633;BME280;28261;53.304;-6.284;2024-03-29T03:34:30;97218.16;;;4.95;100.00
42633;BME280;28261;53.304;-6.284;2024-03-29T03:36:33;97209.66;;;5.01;100.00
42633;BME280;28261;53.304;-6.284;2024-03-29T03:38:34;97209.34;;;5.04;100.00
42633;BME280;28261;53.304;-6.284;2024-03-29T03:40:39;97216.78;;;5.08;100.00
42633;BME280;28261;53.304;-6.284;2024-03-29T03:42:41;97219.75;;;5.14;100.00
42633;BME280;28261;53.304;-6.284;2024-03-29T03:44:43;97224.72;;;5.17;100.00
42633;BME280;28261;53.304;-6.284;2024-03-29T03:46:46;97220.78;;;5.21;100.00
42633;BME280;28261;53.304;-6.284;2024-03-29T03:48:49;97220.78;;;5.21;100.00
42633;BME280;28261;53.304;-6.284;2024-03-29T03:50:50;97217.16;;;5.22;100.00
42633;BME280;28261;53.304;-6.284;2024-03-29T03:52:53;97217.16;;;5.22;100.00
42633;BME280;28261;53.304;-6.284;2024-03-29T03:54:54;97213.56;;;5.23;100.00
42633;BME280;28261;53.304;-6.284;2024-03-29T03:56:57;97211.91;;;5.22;100.00
42633;BME280;28261;53.304;-6.284;2024-03-29T03:58:59;97205.03;;;5.21;100.00
42633;BME280;28261;53.304;-6.284;2024-03-29T04:01:04;97204.34;;;5.19;100.00
42633;BME280;28261;53.304;-6.284;2024-03-29T04:03:07;97197.28;;;5.19;100.00
42633;BME280;28261;53.304;-6.284;2024-03-29T04:05:09;97194.81;;;5.18;100.00
42633;BME280;28261;53.304;-6.284;2024-03-29T04:07:11;97191.53;;;5.16;100.00
42633;BME280;28261;53.304;-6.284;2024-03-29T04:09:14;97187.25;;;5.15;100.00
42633;BME280;28261;53.304;-6.284;2024-03-29T04:11:17;97195.31;;;5.13;100.00
42633;BME280;28261;53.304;-6.284;2024-03-29T04:13:19;97188.25;;;5.14;100.00
42633;BME280;28261;53.304;-6.284;2024-03-29T04:15:21;97188.56;;;5.11;100.00
42633;BME280;28261;53.304;-6.284;2024-03-29T04:17:23;97176.41;;;5.09;100.00
42633;BME280;28261;53.304;-6.284;2024-03-29T04:19:26;97190.53;;;5.08;100.00
42633;BME280;28261;53.304;-6.284;2024-03-29T04:21:29;97192.16;;;5.09;100.00
42633;BME280;28261;53.304;-6.284;2024-03-29T04:23:30;97195.47;;;5.12;100.00
42633;BME280;28261;53.304;-6.284;2024-03-29T04:25:32;97192.69;;;5.13;100.00
42633;BME280;28261;53.304;-6.284;2024-03-29T04:27:35;97195.97;;;5.15;100.00
42633;BME280;28261;53.304;-6.284;2024-03-29T04:29:36;97189.56;;;5.18;100.00
42633;BME280;28261;53.304;-6.284;2024-03-29T04:31:38;97198.13;;;5.20;100.00
42633;BME280;28261;53.304;-6.284;2024-03-29T04:33:40;97192.56;;;5.23;100.00
42633;BME280;28261;53.304;-6.284;2024-03-29T04:35:53;97201.13;;;5.25;100.00
42633;BME280;28261;53.304;-6.284;2024-03-29T04:37:54;97198.63;;;5.23;100.00
42633;BME280;28261;53.304;-6.284;2024-03-29T04:39:57;97195.19;;;5.23;100.00
42633;BME280;28261;53.304;-6.284;2024-03-29T04:41:59;97206.66;;;5.22;100.00
42633;BME280;28261;53.304;-6.284;2024-03-29T04:44:01;97211.91;;;5.22;100.00
42633;BME280;28261;53.304;-6.284;2024-03-29T04:46:07;97218.00;;;5.22;100.00
42633;BME280;28261;53.304;-6.284;2024-03-29T04:48:10;97215.06;;;5.25;100.00
42633;BME280;28261;53.304;-6.284;2024-03-29T04:50:13;97220.16;;;5.27;100.00
42633;BME280;28261;53.304;-6.284;2024-03-29T04:52:17;97216.56;;;5.28;100.00
42633;BME280;28261;53.304;-6.284;2024-03-29T04:54:20;97219.84;;;5.30;100.00
42633;BME280;28261;53.304;-6.284;2024-03-29T04:56:22;97221.81;;;5.28;100.00
42633;BME280;28261;53.304;-6.284;2024-03-29T04:58:25;97224.44;;;5.28;100.00
42633;BME280;28261;53.304;-6.284;2024-03-29T05:00:28;97219.84;;;5.30;100.00
42633;BME280;28261;53.304;-6.284;2024-03-29T05:02:29;97221.50;;;5.31;100.00
42633;BME280;28261;53.304;-6.284;2024-03-29T05:04:32;97218.88;;;5.31;100.00
42633;BME280;28261;53.304;-6.284;2024-03-29T05:06:35;97217.09;;;5.32;100.00
42633;BME280;28261;53.304;-6.284;2024-03-29T05:08:38;97218.06;;;5.31;100.00
42633;BME280;28261;53.304;-6.284;2024-03-29T05:10:40;97212.81;;;5.31;100.00
42633;BME280;28261;53.304;-6.284;2024-03-29T05:12:43;97214.75;;;5.29;100.00
42633;BME280;28261;53.304;-6.284;2024-03-29T05:14:45;97220.16;;;5.27;100.00
42633;BME280;28261;53.304;-6.284;2024-03-29T05:16:49;97210.78;;;5.24;100.00
42633;BME280;28261;53.304;-6.284;2024-03-29T05:18:52;97210.78;;;5.24;100.00
42633;BME280;28261;53.304;-6.284;2024-03-29T05:20:54;97211.91;;;5.22;100.00
42633;BME280;28261;53.304;-6.284;2024-03-29T05:22:57;97214.53;;;5.22;100.00
42633;BME280;28261;53.304;-6.284;2024-03-29T05:25:02;97214.69;;;5.20;100.00
42633;BME280;28261;53.304;-6.284;2024-03-29T05:27:05;97215.53;;;5.21;100.00
42633;BME280;28261;53.304;-6.284;2024-03-29T05:29:07;97214.69;;;5.20;100.00
42633;BME280;28261;53.304;-6.284;2024-03-29T05:31:12;97215.38;;;5.22;100.00
42633;BME280;28261;53.304;-6.284;2024-03-29T05:33:14;97217.00;;;5.23;100.00
42633;BME280;28261;53.304;-6.284;2024-03-29T05:35:17;97219.50;;;5.25;100.00
42633;BME280;28261;53.304;-6.284;2024-03-29T05:37:20;97221.00;;;5.28;100.00
42633;BME280;28261;53.304;-6.284;2024-03-29T05:39:23;97220.84;;;5.29;100.00
42633;BME280;28261;53.304;-6.284;2024-03-29T05:41:27;97227.59;;;5.32;100.00
42633;BME280;28261;53.304;-6.284;2024-03-29T05:43:31;97234.47;;;5.33;100.00
42633;BME280;28261;53.304;-6.284;2024-03-29T05:45:32;97235.31;;;5.33;100.00
42633;BME280;28261;53.304;-6.284;2024-03-29T05:47:35;97242.19;;;5.34;100.00
42633;BME280;28261;53.304;-6.284;2024-03-29T05:49:37;97238.44;;;5.37;100.00
42633;BME280;28261;53.304;-6.284;2024-03-29T05:51:39;97241.91;;;5.37;100.00
42633;BME280;28261;53.304;-6.284;2024-03-29T05:53:42;97251.56;;;5.37;100.00
42633;BME280;28261;53.304;-6.284;2024-03-29T05:55:44;97243.69;;;5.37;100.00
42633;BME280;28261;53.304;-6.284;2024-03-29T05:57:48;97240.41;;;5.35;100.00
42633;BME280;28261;53.304;-6.284;2024-03-29T05:59:50;97239.88;;;5.31;100.00
42633;BME280;28261;53.304;-6.284;2024-03-29T06:01:53;97244.63;;;5.28;100.00
42633;BME280;28261;53.304;-6.284;2024-03-29T06:03:56;97249.19;;;5.25;100.00
42633;BME280;28261;53.304;-6.284;2024-03-29T06:06:05;97250.34;;;5.23;100.00
42633;BME280;28261;53.304;-6.284;2024-03-29T06:08:07;97257.41;;;5.22;100.00
42633;BME280;28261;53.304;-6.284;2024-03-29T06:10:10;97260.19;;;5.21;100.00
42633;BME280;28261;53.304;-6.284;2024-03-29T06:12:12;97259.34;;;5.20;100.00
42633;BME280;28261;53.304;-6.284;2024-03-29T06:14:16;97259.34;;;5.20;100.00
42633;BME280;28261;53.304;-6.284;2024-03-29T06:16:36;97255.06;;;5.19;100.00
42633;BME280;28261;53.304;-6.284;2024-03-29T06:18:56;97249.00;;;5.19;100.00
42633;BME280;28261;53.304;-6.284;2024-03-29T06:20:58;97248.19;;;5.18;100.00
42633;BME280;28261;53.304;-6.284;2024-03-29T06:23:01;97247.66;;;5.15;100.00
42633;BME280;28261;53.304;-6.284;2024-03-29T06:25:04;97249.47;;;5.14;100.00
42633;BME280;28261;53.304;-6.284;2024-03-29T06:27:06;97244.38;;;5.13;100.00
42633;BME280;28261;53.304;-6.284;2024-03-29T06:29:09;97242.56;;;5.13;100.00
42633;BME280;28261;53.304;-6.284;2024-03-29T06:31:12;97240.75;;;5.14;100.00
42633;BME280;28261;53.304;-6.284;2024-03-29T06:33:15;97249.63;;;5.13;100.00
42633;BME280;28261;53.304;-6.284;2024-03-29T06:35:18;97249.97;;;5.18;100.00
42633;BME280;28261;53.304;-6.284;2024-03-29T06:37:23;97251.31;;;5.22;100.00
42633;BME280;28261;53.304;-6.284;2024-03-29T06:39:26;97254.34;;;5.35;100.00
42633;BME280;28261;53.304;-6.284;2024-03-29T06:41:29;97252.16;;;5.57;100.00
42633;BME280;28261;53.304;-6.284;2024-03-29T06:43:31;97257.19;;;5.85;100.00
42633;BME280;28261;53.304;-6.284;2024-03-29T06:45:34;97258.00;;;6.20;100.00
42633;BME280;28261;53.304;-6.284;2024-03-29T06:47:38;97252.34;;;6.74;100.00
42633;BME280;28261;53.304;-6.284;2024-03-29T06:49:39;97253.28;;;7.31;100.00
42633;BME280;28261;53.304;-6.284;2024-03-29T06:51:42;97266.78;;;7.84;100.00
42633;BME280;28261;53.304;-6.284;2024-03-29T06:53:45;97258.59;;;8.41;100.00
42633;BME280;28261;53.304;-6.284;2024-03-29T06:55:48;97262.63;;;8.84;97.36
42633;BME280;28261;53.304;-6.284;2024-03-29T06:57:50;97262.50;;;9.15;95.99
42633;BME280;28261;53.304;-6.284;2024-03-29T06:59:53;97255.78;;;9.27;96.03
42633;BME280;28261;53.304;-6.284;2024-03-29T07:01:55;97249.78;;;9.48;94.91
42633;BME280;28261;53.304;-6.284;2024-03-29T07:03:59;97251.00;;;9.61;93.34
42633;BME280;28261;53.304;-6.284;2024-03-29T07:06:02;97261.56;;;9.46;92.38
42633;BME280;28261;53.304;-6.284;2024-03-29T07:08:05;97273.81;;;9.24;94.43
42633;BME280;28261;53.304;-6.284;2024-03-29T07:10:07;97281.53;;;8.95;96.65
42633;BME280;28261;53.304;-6.284;2024-03-29T07:12:10;97277.13;;;8.64;98.29
42633;BME280;28261;53.304;-6.284;2024-03-29T07:14:12;97280.09;;;8.30;99.26
42633;BME280;28261;53.304;-6.284;2024-03-29T07:16:14;97285.00;;;8.02;100.00
42633;BME280;28261;53.304;-6.284;2024-03-29T07:18:17;97288.25;;;7.81;100.00
42633;BME280;28261;53.304;-6.284;2024-03-29T07:20:21;97284.19;;;7.61;100.00
42633;BME280;28261;53.304;-6.284;2024-03-29T07:22:24;97283.38;;;7.44;100.00
42633;BME280;28261;53.304;-6.284;2024-03-29T07:24:26;97279.78;;;7.29;100.00
42633;BME280;28261;53.304;-6.284;2024-03-29T07:26:29;97291.66;;;7.08;100.00
42633;BME280;28261;53.304;-6.284;2024-03-29T07:28:31;97295.09;;;6.92;100.00
42633;BME280;28261;53.304;-6.284;2024-03-29T07:30:35;97301.53;;;6.82;100.00
42633;BME280;28261;53.304;-6.284;2024-03-29T07:32:39;97311.06;;;6.74;100.00
42633;BME280;28261;53.304;-6.284;2024-03-29T07:34:42;97304.97;;;6.66;100.00
42633;BME280;28261;53.304;-6.284;2024-03-29T07:36:46;97303.50;;;6.63;100.00
42633;BME280;28261;53.304;-6.284;2024-03-29T07:38:47;97300.69;;;6.65;100.00
42633;BME280;28261;53.304;-6.284;2024-03-29T07:40:50;97298.88;;;6.65;100.00
42633;BME280;28261;53.304;-6.284;2024-03-29T07:42:53;97302.00;;;6.69;100.00
42633;BME280;28261;53.304;-6.284;2024-03-29T07:44:55;97300.03;;;6.71;100.00
42633;BME280;28261;53.304;-6.284;2024-03-29T07:46:57;97298.06;;;6.73;100.00
42633;BME280;28261;53.304;-6.284;2024-03-29T07:49:00;97300.38;;;6.76;100.00
42633;BME280;28261;53.304;-6.284;2024-03-29T07:51:02;97301.84;;;6.78;100.00
42633;BME280;28261;53.304;-6.284;2024-03-29T07:53:06;97296.09;;;6.83;100.00
42633;BME280;28261;53.304;-6.284;2024-03-29T07:55:09;97299.06;;;6.88;100.00
42633;BME280;28261;53.304;-6.284;2024-03-29T07:57:12;97302.19;;;6.92;100.00
42633;BME280;28261;53.304;-6.284;2024-03-29T07:59:16;97299.56;;;6.92;100.00
42633;BME280;28261;53.304;-6.284;2024-03-29T08:01:21;97301.84;;;6.87;100.00
42633;BME280;28261;53.304;-6.284;2024-03-29T08:03:24;97305.81;;;6.83;100.00
42633;BME280;28261;53.304;-6.284;2024-03-29T08:05:27;97305.63;;;6.84;100.00
42633;BME280;28261;53.304;-6.284;2024-03-29T08:07:31;97305.31;;;6.95;100.00
42633;BME280;28261;53.304;-6.284;2024-03-29T08:09:35;97302.66;;;7.12;100.00
42633;BME280;28261;53.304;-6.284;2024-03-29T08:11:37;97307.63;;;7.32;100.00
42633;BME280;28261;53.304;-6.284;2024-03-29T08:13:40;97305.28;;;7.45;100.00
42633;BME280;28261;53.304;-6.284;2024-03-29T08:15:43;97301.97;;;7.51;100.00
42633;BME280;28261;53.304;-6.284;2024-03-29T08:17:44;97304.41;;;7.61;100.00
42633;BME280;28261;53.304;-6.284;2024-03-29T08:19:47;97310.00;;;7.74;100.00
42633;BME280;28261;53.304;-6.284;2024-03-29T08:21:50;97316.22;;;7.82;100.00
42633;BME280;28261;53.304;-6.284;2024-03-29T08:23:52;97314.22;;;7.92;100.00
42633;BME280;28261;53.304;-6.284;2024-03-29T08:25:58;97308.56;;;8.03;100.00
42633;BME280;28261;53.304;-6.284;2024-03-29T08:28:01;97311.81;;;8.22;100.00
42633;BME280;28261;53.304;-6.284;2024-03-29T08:30:05;97313.38;;;8.39;100.00
42633;BME280;28261;53.304;-6.284;2024-03-29T08:32:08;97316.09;;;8.62;100.00
42633;BME280;28261;53.304;-6.284;2024-03-29T08:34:11;97318.19;;;8.67;99.79
42633;BME280;28261;53.304;-6.284;2024-03-29T08:36:15;97322.47;;;8.68;98.98
42633;BME280;28261;53.304;-6.284;2024-03-29T08:38:17;97319.53;;;8.63;98.97
42633;BME280;28261;53.304;-6.284;2024-03-29T08:40:20;97320.22;;;8.57;98.31
42633;BME280;28261;53.304;-6.284;2024-03-29T08:42:24;97331.50;;;8.51;98.58
42633;BME280;28261;53.304;-6.284;2024-03-29T08:44:26;97330.94;;;8.55;99.23
42633;BME280;28261;53.304;-6.284;2024-03-29T08:46:29;97329.69;;;8.74;98.67
42633;BME280;28261;53.304;-6.284;2024-03-29T08:48:32;97330.34;;;9.00;97.85
42633;BME280;28261;53.304;-6.284;2024-03-29T08:50:35;97334.53;;;9.32;97.02
42633;BME280;28261;53.304;-6.284;2024-03-29T08:52:39;97324.69;;;9.64;96.40
42633;BME280;28261;53.304;-6.284;2024-03-29T08:54:40;97322.84;;;9.94;94.67
42633;BME280;28261;53.304;-6.284;2024-03-29T08:56:43;97312.97;;;10.18;93.41
42633;BME280;28261;53.304;-6.284;2024-03-29T08:58:48;97325.31;;;10.26;91.79
42633;BME280;28261;53.304;-6.284;2024-03-29T09:00:53;97326.78;;;10.43;91.45
42633;BME280;28261;53.304;-6.284;2024-03-29T09:02:57;97331.19;;;10.58;88.77
42633;BME280;28261;53.304;-6.284;2024-03-29T09:04:59;97322.13;;;10.67;87.05
42633;BME280;28261;53.304;-6.284;2024-03-29T09:07:02;97322.59;;;10.71;87.34
42633;BME280;28261;53.304;-6.284;2024-03-29T09:09:05;97329.38;;;10.58;86.20
42633;BME280;28261;53.304;-6.284;2024-03-29T09:11:08;97329.78;;;10.40;86.44
42633;BME280;28261;53.304;-6.284;2024-03-29T09:13:12;97328.44;;;10.14;86.42
42633;BME280;28261;53.304;-6.284;2024-03-29T09:15:16;97326.31;;;9.95;86.55
42633;BME280;28261;53.304;-6.284;2024-03-29T09:17:19;97328.63;;;9.83;87.82
42633;BME280;28261;53.304;-6.284;2024-03-29T09:19:25;97335.09;;;9.80;88.76
42633;BME280;28261;53.304;-6.284;2024-03-29T09:21:28;97330.97;;;9.78;89.06
42633;BME280;28261;53.304;-6.284;2024-03-29T09:23:31;97337.16;;;9.70;88.12
42633;BME280;28261;53.304;-6.284;2024-03-29T09:25:34;97334.41;;;9.63;88.48
42633;BME280;28261;53.304;-6.284;2024-03-29T09:27:36;97339.78;;;9.55;88.96
42633;BME280;28261;53.304;-6.284;2024-03-29T09:29:41;97340.50;;;9.49;89.51
42633;BME280;28261;53.304;-6.284;2024-03-29T09:31:45;97341.69;;;9.46;89.16
42633;BME280;28261;53.304;-6.284;2024-03-29T09:33:48;97337.75;;;9.42;90.04
42633;BME280;28261;53.304;-6.284;2024-03-29T09:35:54;97357.19;;;9.49;90.40
42633;BME280;28261;53.304;-6.284;2024-03-29T09:37:57;97346.19;;;9.61;89.84
42633;BME280;28261;53.304;-6.284;2024-03-29T09:40:01;97342.25;;;9.72;89.41
42633;BME280;28261;53.304;-6.284;2024-03-29T09:42:05;97347.13;;;9.83;89.26
42633;BME280;28261;53.304;-6.284;2024-03-29T09:44:08;97343.22;;;9.94;88.63
42633;BME280;28261;53.304;-6.284;2024-03-29T09:46:12;97342.09;;;10.03;88.08
42633;BME280;28261;53.304;-6.284;2024-03-29T09:48:16;97343.03;;;10.10;87.63
42633;BME280;28261;53.304;-6.284;2024-03-29T09:50:18;97350.03;;;10.18;87.01
42633;BME280;28261;53.304;-6.284;2024-03-29T09:52:21;97340.38;;;10.25;86.93
42633;BME280;28261;53.304;-6.284;2024-03-29T09:54:26;97337.38;;;10.43;86.74
42633;BME280;28261;53.304;-6.284;2024-03-29T09:56:30;97345.25;;;10.73;86.01
42633;BME280;28261;53.304;-6.284;2024-03-29T09:58:33;97354.91;;;11.03;83.58
42633;BME280;28261;53.304;-6.284;2024-03-29T10:00:36;97349.41;;;11.26;82.55
42633;BME280;28261;53.304;-6.284;2024-03-29T10:02:40;97356.56;;;11.54;82.28
42633;BME280;28261;53.304;-6.284;2024-03-29T10:04:45;97336.09;;;11.69;77.05
42633;BME280;28261;53.304;-6.284;2024-03-29T10:06:48;97336.91;;;11.69;75.32
42633;BME280;28261;53.304;-6.284;2024-03-29T10:08:51;97341.88;;;11.79;73.98
42633;BME280;28261;53.304;-6.284;2024-03-29T10:10:58;97349.50;;;11.89;73.15
42633;BME280;28261;53.304;-6.284;2024-03-29T10:13:01;97351.88;;;12.06;71.43
42633;BME280;28261;53.304;-6.284;2024-03-29T10:15:04;97354.44;;;12.34;71.10
42633;BME280;28261;53.304;-6.284;2024-03-29T10:17:11;97348.44;;;12.53;67.33
42633;BME280;28261;53.304;-6.284;2024-03-29T10:19:14;97349.88;;;12.69;65.60
42633;BME280;28261;53.304;-6.284;2024-03-29T10:21:24;97348.28;;;12.68;64.41
42633;BME280;28261;53.304;-6.284;2024-03-29T10:23:27;97347.63;;;12.60;63.71
42633;BME280;28261;53.304;-6.284;2024-03-29T10:25:32;97343.88;;;12.41;63.66
42633;BME280;28261;53.304;-6.284;2024-03-29T10:27:35;97351.75;;;12.21;64.96
42633;BME280;28261;53.304;-6.284;2024-03-29T10:29:40;97348.59;;;12.04;65.50
42633;BME280;28261;53.304;-6.284;2024-03-29T10:31:42;97344.56;;;11.86;65.82
42633;BME280;28261;53.304;-6.284;2024-03-29T10:33:45;97345.50;;;11.72;66.47
42633;BME280;28261;53.304;-6.284;2024-03-29T10:35:47;97335.69;;;11.72;67.68
42633;BME280;28261;53.304;-6.284;2024-03-29T10:37:52;97341.50;;;11.82;67.18
42633;BME280;28261;53.304;-6.284;2024-03-29T10:39:54;97343.34;;;11.89;65.74
42633;BME280;28261;53.304;-6.284;2024-03-29T10:41:59;97341.25;;;12.06;65.63
42633;BME280;28261;53.304;-6.284;2024-03-29T10:44:02;97334.63;;;12.30;63.76